首页
METAR-TAF:

METAR-TAF

机场 :

歐文·羅伯茨國際機場

喬治敦, 大開曼, 開曼群島

纬度: 19-17N, 经度: 081-21W, 海拔: 3米

当前天气观测

该预报发布于11分钟前的00:00 UTC
风速7节,风向东转东北
温度 30°C
湿度 75%
气压 1011 hPa
能见度10公里或以上
少量云层高于1800英尺

METAR: MWCR 210000Z 07007KT 9999 FEW018 30/25 Q1011

时间: 19:11 (00:11 UTC)

预报

该预报发布于1小时和11分钟前的23:00 UTC
预报有效从21日的 00点(UTC)到 21日的 24点(UTC)
风速8节,风向东转东南
能见度10公里或以上
少量云层高于1800英尺

TAF: MWCR 202300Z 2100/2124 11008KT 9999 FEW018

超过4000个机场的气象观测和天气预报(METAR&TAF报告)。

可查询的气象台以黄色和红色小点在地图上表示。

将鼠标移到小点上方,可查看气象台名称。

然后点击查看天气观测和预报。

如需切换地图:点击带黑十字的绿色按钮放大地图;点击带横线的绿色按钮缩小地图;或者点击绿色箭头查看邻近地区的地图。


METAR-TAF: